HKE135 RCKH-VHHH
Flight info
| Callsign | HKE135 |
|---|---|
| Flight time | N/A |
| Altitude | 36000 |
| Route | PARAS1B PARAS T7 WP521 G581 ELATO V522 ABBEY |
| Aircraft | A320/M-SDE3FGHIRWY/LB1 |
Departure
| Time | 2026-04-20 16:57 |
|---|---|
| Airport | Kaohsiung International Airport (RCKH) |
Arrival
| Time | N/A |
|---|---|
| Airport | Hong Kong International Airport (VHHH) |
| Time | Latitude | Longitude | Altitude | Speed | Heading |
|---|---|---|---|---|---|
| 2026-04-20 16:41 | 22.57270 | 120.33964 | 38 ft | 0 kts | 271° |
| 2026-04-20 16:50 | 22.57270 | 120.33970 | 38 ft | 4 kts | 271° |
| 2026-04-20 16:50 | 22.57270 | 120.33999 | 38 ft | 4 kts | 270° |
| 2026-04-20 16:50 | 22.57271 | 120.34028 | 38 ft | 4 kts | 256° |
| 2026-04-20 16:51 | 22.57281 | 120.34050 | 35 ft | 3 kts | 188° |
| 2026-04-20 16:51 | 22.57304 | 120.34051 | 37 ft | 4 kts | 181° |
| 2026-04-20 16:51 | 22.57331 | 120.34052 | 37 ft | 4 kts | 181° |
| 2026-04-20 16:51 | 22.57358 | 120.34053 | 36 ft | 2 kts | 181° |
| 2026-04-20 16:52 | 22.57379 | 120.34055 | 36 ft | 4 kts | 201° |
| 2026-04-20 16:52 | 22.57400 | 120.34070 | 37 ft | 4 kts | 238° |
| 2026-04-20 16:52 | 22.57408 | 120.34094 | 36 ft | 2 kts | 272° |
| 2026-04-20 16:52 | 22.57408 | 120.34119 | 38 ft | 4 kts | 272° |
| 2026-04-20 16:53 | 22.57407 | 120.34148 | 38 ft | 4 kts | 272° |
| 2026-04-20 16:53 | 22.57406 | 120.34169 | 38 ft | 2 kts | 272° |
| 2026-04-20 16:53 | 22.57406 | 120.34159 | 38 ft | 2 kts | 272° |
| 2026-04-20 16:54 | 22.57451 | 120.34115 | 38 ft | 21 kts | 5° |
| 2026-04-20 16:54 | 22.57545 | 120.34131 | 38 ft | 11 kts | 33° |
| 2026-04-20 16:54 | 22.57564 | 120.34215 | 39 ft | 13 kts | 93° |
| 2026-04-20 16:54 | 22.57561 | 120.34319 | 39 ft | 15 kts | 92° |
| 2026-04-20 16:55 | 22.57557 | 120.34439 | 39 ft | 17 kts | 92° |
| 2026-04-20 16:55 | 22.57553 | 120.34581 | 39 ft | 23 kts | 92° |
| 2026-04-20 16:55 | 22.57548 | 120.34764 | 38 ft | 25 kts | 92° |
| 2026-04-20 16:55 | 22.57564 | 120.34899 | 38 ft | 15 kts | 39° |
| 2026-04-20 16:56 | 22.57666 | 120.34914 | 39 ft | 11 kts | 2° |
| 2026-04-20 16:56 | 22.57712 | 120.34879 | 39 ft | 4 kts | 282° |
| 2026-04-20 16:56 | 22.57712 | 120.34848 | 39 ft | 22 kts | 271° |
| 2026-04-20 16:56 | 22.57728 | 120.34331 | 40 ft | 112 kts | 271° |
| 2026-04-20 16:57 | 22.57770 | 120.33243 | 140 ft | 164 kts | 275° |
| 2026-04-20 16:57 | 22.57814 | 120.31994 | 770 ft | 176 kts | 271° |
| 2026-04-20 16:57 | 22.57846 | 120.30648 | 1645 ft | 180 kts | 270° |
| 2026-04-20 16:57 | 22.57875 | 120.29301 | 2304 ft | 182 kts | 270° |
| 2026-04-20 16:58 | 22.57909 | 120.27845 | 2557 ft | 205 kts | 270° |
| 2026-04-20 16:58 | 22.57948 | 120.26210 | 2807 ft | 229 kts | 270° |
| 2026-04-20 16:58 | 22.57665 | 120.24443 | 3164 ft | 252 kts | 242° |
| 2026-04-20 16:58 | 22.56549 | 120.22950 | 3739 ft | 265 kts | 225° |
| 2026-04-20 16:59 | 22.55252 | 120.21500 | 4583 ft | 270 kts | 226° |
| 2026-04-20 16:59 | 22.53941 | 120.20023 | 5426 ft | 274 kts | 228° |
| 2026-04-20 16:59 | 22.52703 | 120.18429 | 6255 ft | 279 kts | 232° |
| 2026-04-20 16:59 | 22.51495 | 120.16773 | 7048 ft | 282 kts | 233° |
| 2026-04-20 17:00 | 22.49072 | 120.13361 | 8643 ft | 288 kts | 234° |
| 2026-04-20 17:00 | 22.47864 | 120.11654 | 9423 ft | 291 kts | 234° |
| 2026-04-20 17:00 | 22.46625 | 120.09912 | 10165 ft | 294 kts | 234° |
| 2026-04-20 17:01 | 22.45330 | 120.08100 | 10421 ft | 316 kts | 233° |
| 2026-04-20 17:01 | 22.43943 | 120.06163 | 10649 ft | 334 kts | 233° |
| 2026-04-20 17:01 | 22.42495 | 120.04147 | 11181 ft | 341 kts | 233° |
| 2026-04-20 17:01 | 22.41025 | 120.02108 | 11763 ft | 346 kts | 233° |
| 2026-04-20 17:02 | 22.39535 | 120.00045 | 12359 ft | 351 kts | 232° |
| 2026-04-20 17:02 | 22.38035 | 119.97965 | 12953 ft | 355 kts | 232° |
| 2026-04-20 17:02 | 22.36502 | 119.95838 | 13537 ft | 359 kts | 232° |
| 2026-04-20 17:02 | 22.34960 | 119.93696 | 14077 ft | 363 kts | 232° |
| 2026-04-20 17:03 | 22.33422 | 119.91558 | 14593 ft | 366 kts | 232° |
| 2026-04-20 17:03 | 22.31852 | 119.89375 | 15120 ft | 370 kts | 233° |
| 2026-04-20 17:03 | 22.30267 | 119.87172 | 15645 ft | 373 kts | 233° |
| 2026-04-20 17:03 | 22.28666 | 119.84950 | 16167 ft | 376 kts | 233° |
| 2026-04-20 17:04 | 22.27049 | 119.82713 | 16676 ft | 380 kts | 233° |
| 2026-04-20 17:04 | 22.25417 | 119.80458 | 17189 ft | 383 kts | 233° |
| 2026-04-20 17:04 | 22.23770 | 119.78180 | 17704 ft | 386 kts | 233° |
| 2026-04-20 17:04 | 22.22147 | 119.75853 | 18206 ft | 389 kts | 238° |
| 2026-04-20 17:05 | 22.20879 | 119.73274 | 18663 ft | 390 kts | 249° |
| 2026-04-20 17:05 | 22.20083 | 119.70487 | 19166 ft | 389 kts | 258° |
| 2026-04-20 17:05 | 22.19478 | 119.67636 | 19707 ft | 390 kts | 258° |
| 2026-04-20 17:05 | 22.18867 | 119.64785 | 20256 ft | 390 kts | 258° |
| 2026-04-20 17:06 | 22.18249 | 119.61931 | 20810 ft | 391 kts | 258° |
| 2026-04-20 17:06 | 22.17625 | 119.59069 | 21360 ft | 391 kts | 257° |
| 2026-04-20 17:06 | 22.16999 | 119.56206 | 21914 ft | 392 kts | 257° |
| 2026-04-20 17:06 | 22.16381 | 119.53340 | 22455 ft | 393 kts | 259° |
| 2026-04-20 17:07 | 22.16086 | 119.50451 | 22976 ft | 393 kts | 268° |
| 2026-04-20 17:07 | 22.16023 | 119.47498 | 23489 ft | 394 kts | 268° |
| 2026-04-20 17:07 | 22.15952 | 119.44532 | 23924 ft | 396 kts | 268° |
| 2026-04-20 17:07 | 22.15875 | 119.41560 | 24332 ft | 397 kts | 268° |
| 2026-04-20 17:08 | 22.15791 | 119.38583 | 24735 ft | 398 kts | 268° |
| 2026-04-20 17:08 | 22.15703 | 119.35597 | 25133 ft | 399 kts | 268° |
| 2026-04-20 17:08 | 22.15615 | 119.32599 | 25524 ft | 400 kts | 268° |
| 2026-04-20 17:08 | 22.15529 | 119.29591 | 25908 ft | 402 kts | 268° |
| 2026-04-20 17:09 | 22.15445 | 119.26568 | 26292 ft | 403 kts | 268° |
| 2026-04-20 17:09 | 22.15362 | 119.23544 | 26657 ft | 404 kts | 268° |
| 2026-04-20 17:09 | 22.15275 | 119.20503 | 27026 ft | 406 kts | 268° |
| 2026-04-20 17:09 | 22.15187 | 119.17451 | 27382 ft | 407 kts | 269° |
| 2026-04-20 17:10 | 22.15098 | 119.14392 | 27740 ft | 409 kts | 269° |
| 2026-04-20 17:10 | 22.15006 | 119.11323 | 28100 ft | 410 kts | 269° |
| 2026-04-20 17:10 | 22.15027 | 119.08240 | 28457 ft | 412 kts | 275° |
| 2026-04-20 17:10 | 22.15385 | 119.05171 | 28820 ft | 413 kts | 277° |
| 2026-04-20 17:11 | 22.15763 | 119.02099 | 29186 ft | 415 kts | 277° |
| 2026-04-20 17:11 | 22.16141 | 118.99008 | 29545 ft | 416 kts | 277° |
| 2026-04-20 17:11 | 22.16519 | 118.95907 | 29901 ft | 418 kts | 277° |
| 2026-04-20 17:11 | 22.16896 | 118.92791 | 30219 ft | 419 kts | 277° |
| 2026-04-20 17:12 | 22.17264 | 118.89704 | 30524 ft | 420 kts | 277° |
| 2026-04-20 17:12 | 22.17635 | 118.86581 | 30895 ft | 419 kts | 277° |
| 2026-04-20 17:12 | 22.18006 | 118.83466 | 31355 ft | 416 kts | 277° |
| 2026-04-20 17:12 | 22.18376 | 118.80363 | 31825 ft | 414 kts | 277° |
| 2026-04-20 17:13 | 22.18733 | 118.77370 | 32286 ft | 411 kts | 277° |
| 2026-04-20 17:13 | 22.19063 | 118.74585 | 32725 ft | 408 kts | 277° |
| 2026-04-20 17:13 | 22.19419 | 118.71557 | 33201 ft | 406 kts | 277° |
| 2026-04-20 17:13 | 22.19770 | 118.68579 | 33666 ft | 403 kts | 277° |
| 2026-04-20 17:14 | 22.20122 | 118.65591 | 34120 ft | 400 kts | 277° |
| 2026-04-20 17:14 | 22.20472 | 118.62614 | 34491 ft | 399 kts | 277° |
| 2026-04-20 17:14 | 22.20821 | 118.59647 | 34805 ft | 398 kts | 277° |
| 2026-04-20 17:14 | 22.21170 | 118.56677 | 35107 ft | 398 kts | 277° |
| 2026-04-20 17:15 | 22.21482 | 118.54024 | 35369 ft | 398 kts | 276° |
| 2026-04-20 17:15 | 22.21831 | 118.51062 | 35651 ft | 398 kts | 276° |
| 2026-04-20 17:15 | 22.22181 | 118.48098 | 35902 ft | 398 kts | 276° |
| 2026-04-20 17:16 | 22.22877 | 118.42145 | 35986 ft | 401 kts | 276° |
| 2026-04-20 17:16 | 22.23561 | 118.36207 | 35989 ft | 401 kts | 276° |
| 2026-04-20 17:17 | 22.24249 | 118.30224 | 35991 ft | 401 kts | 276° |
| 2026-04-20 17:17 | 22.24829 | 118.25241 | 35990 ft | 402 kts | 276° |
| 2026-04-20 17:18 | 22.25527 | 118.19258 | 35986 ft | 402 kts | 276° |
| 2026-04-20 17:18 | 22.26186 | 118.13587 | 35987 ft | 402 kts | 276° |
| 2026-04-20 17:19 | 22.26852 | 118.07593 | 35990 ft | 402 kts | 276° |
| 2026-04-20 17:19 | 22.27499 | 118.01519 | 35987 ft | 413 kts | 274° |
| 2026-04-20 17:20 | 22.28187 | 117.95317 | 35987 ft | 417 kts | 274° |
| 2026-04-20 17:20 | 22.28870 | 117.89426 | 35985 ft | 417 kts | 274° |
| 2026-04-20 17:21 | 22.29590 | 117.83244 | 35983 ft | 417 kts | 274° |
| 2026-04-20 17:21 | 22.30301 | 117.77022 | 35987 ft | 417 kts | 274° |
| 2026-04-20 17:22 | 22.30998 | 117.70798 | 35989 ft | 418 kts | 274° |
| 2026-04-20 17:22 | 22.31695 | 117.64571 | 35996 ft | 418 kts | 274° |
| 2026-04-20 17:23 | 22.32392 | 117.58338 | 35993 ft | 418 kts | 274° |
| 2026-04-20 17:23 | 22.33087 | 117.52111 | 35997 ft | 418 kts | 274° |
| 2026-04-20 17:24 | 22.33259 | 117.45874 | 35997 ft | 415 kts | 267° |
| 2026-04-20 17:24 | 22.33147 | 117.39684 | 35996 ft | 415 kts | 267° |
| 2026-04-20 17:25 | 22.33042 | 117.33448 | 35998 ft | 415 kts | 267° |
| 2026-04-20 17:25 | 22.32932 | 117.27212 | 35996 ft | 415 kts | 267° |
| 2026-04-20 17:26 | 22.32818 | 117.20977 | 35993 ft | 415 kts | 267° |
| 2026-04-20 17:26 | 22.32694 | 117.14739 | 35992 ft | 415 kts | 267° |
| 2026-04-20 17:27 | 22.32576 | 117.08839 | 35993 ft | 415 kts | 267° |
| 2026-04-20 17:27 | 22.32459 | 117.02602 | 35993 ft | 415 kts | 267° |
| 2026-04-20 17:28 | 22.32334 | 116.96369 | 35992 ft | 416 kts | 267° |
| 2026-04-20 17:28 | 22.32202 | 116.90169 | 35990 ft | 416 kts | 267° |
| 2026-04-20 17:29 | 22.32069 | 116.83914 | 35989 ft | 416 kts | 267° |
| 2026-04-20 17:29 | 22.31933 | 116.77675 | 35984 ft | 416 kts | 267° |
| 2026-04-20 17:30 | 22.31798 | 116.71426 | 35982 ft | 416 kts | 267° |
| 2026-04-20 17:30 | 22.31664 | 116.65219 | 35984 ft | 416 kts | 267° |
| 2026-04-20 17:31 | 22.31525 | 116.58965 | 35980 ft | 417 kts | 267° |
| 2026-04-20 17:31 | 22.31382 | 116.52709 | 35978 ft | 417 kts | 267° |
| 2026-04-20 17:32 | 22.31238 | 116.46450 | 35977 ft | 417 kts | 267° |
| 2026-04-20 17:32 | 22.31085 | 116.40195 | 35977 ft | 417 kts | 267° |
| 2026-04-20 17:33 | 22.30933 | 116.33921 | 35974 ft | 417 kts | 267° |
| 2026-04-20 17:33 | 22.30783 | 116.27648 | 35977 ft | 418 kts | 267° |
| 2026-04-20 17:34 | 22.30629 | 116.21377 | 35979 ft | 417 kts | 267° |
| 2026-04-20 17:34 | 22.30481 | 116.15120 | 35979 ft | 417 kts | 267° |
| 2026-04-20 17:35 | 22.30316 | 116.08893 | 35977 ft | 417 kts | 267° |
| 2026-04-20 17:35 | 22.30147 | 116.02638 | 35976 ft | 417 kts | 267° |
| 2026-04-20 17:36 | 22.29982 | 115.96375 | 35975 ft | 417 kts | 267° |
| 2026-04-20 17:36 | 22.29816 | 115.90115 | 35971 ft | 417 kts | 267° |
| 2026-04-20 17:37 | 22.29648 | 115.83865 | 35971 ft | 417 kts | 267° |
| 2026-04-20 17:37 | 22.29474 | 115.77598 | 35969 ft | 417 kts | 267° |
| 2026-04-20 17:38 | 22.29309 | 115.71340 | 35970 ft | 417 kts | 267° |
| 2026-04-20 17:38 | 22.29145 | 115.65113 | 35971 ft | 417 kts | 267° |
| 2026-04-20 17:39 | 22.28974 | 115.58855 | 35971 ft | 417 kts | 268° |
| 2026-04-20 17:39 | 22.28806 | 115.52595 | 35967 ft | 417 kts | 268° |
| 2026-04-20 17:40 | 22.28629 | 115.46318 | 35967 ft | 418 kts | 268° |
| 2026-04-20 17:40 | 22.28450 | 115.40052 | 35968 ft | 418 kts | 268° |
| 2026-04-20 17:41 | 22.28269 | 115.33776 | 35968 ft | 418 kts | 268° |
| 2026-04-20 17:41 | 22.28082 | 115.27539 | 35964 ft | 418 kts | 268° |
| 2026-04-20 17:42 | 22.27883 | 115.21261 | 35966 ft | 418 kts | 268° |
| 2026-04-20 17:42 | 22.27689 | 115.14980 | 35967 ft | 419 kts | 268° |
| 2026-04-20 17:43 | 22.27495 | 115.08683 | 35971 ft | 419 kts | 268° |
| 2026-04-20 17:43 | 22.27290 | 115.02437 | 35972 ft | 418 kts | 268° |
| 2026-04-20 17:44 | 22.27086 | 114.96159 | 35968 ft | 418 kts | 268° |
| 2026-04-20 17:44 | 22.26884 | 114.89877 | 35964 ft | 418 kts | 268° |
| 2026-04-20 17:45 | 22.26675 | 114.83584 | 35960 ft | 418 kts | 268° |
| 2026-04-20 17:45 | 22.25539 | 114.77547 | 35959 ft | 420 kts | 239° |
| 2026-04-20 17:45 | 22.23659 | 114.75124 | 35948 ft | 424 kts | 228° |
| 2026-04-20 17:46 | 22.21548 | 114.72893 | 35932 ft | 425 kts | 227° |
| 2026-04-20 17:46 | 22.17229 | 114.68507 | 35930 ft | 427 kts | 226° |
| 2026-04-20 17:47 | 22.12873 | 114.64113 | 35924 ft | 429 kts | 226° |
| 2026-04-20 17:47 | 22.08536 | 114.59677 | 35925 ft | 430 kts | 227° |
| 2026-04-20 17:48 | 22.04197 | 114.55215 | 35930 ft | 431 kts | 227° |
| 2026-04-20 17:48 | 22.02232 | 114.52803 | 35918 ft | 425 kts | 243° |
| 2026-04-20 17:48 | 22.00984 | 114.49989 | 35928 ft | 421 kts | 249° |
| 2026-04-20 17:49 | 21.98735 | 114.44150 | 35924 ft | 422 kts | 250° |
| 2026-04-20 17:49 | 21.96523 | 114.38271 | 35928 ft | 424 kts | 250° |
| 2026-04-20 17:50 | 21.94290 | 114.32394 | 35925 ft | 424 kts | 250° |
| 2026-04-20 17:50 | 21.92029 | 114.26513 | 35925 ft | 425 kts | 250° |
| 2026-04-20 17:51 | 21.89969 | 114.20555 | 35916 ft | 421 kts | 264° |
| 2026-04-20 17:51 | 21.89996 | 114.17778 | 35914 ft | 415 kts | 283° |
| 2026-04-20 17:51 | 21.90870 | 114.14871 | 35917 ft | 414 kts | 294° |
| 2026-04-20 17:52 | 21.93711 | 114.09464 | 35911 ft | 416 kts | 303° |
| 2026-04-20 17:52 | 21.96891 | 114.04250 | 35916 ft | 417 kts | 302° |
| 2026-04-20 17:53 | 21.99858 | 113.98876 | 35918 ft | 418 kts | 299° |
| 2026-04-20 17:53 | 22.02647 | 113.93380 | 35921 ft | 418 kts | 298° |
| 2026-04-20 17:54 | 22.05422 | 113.87857 | 35928 ft | 418 kts | 298° |
| 2026-04-20 17:54 | 22.08231 | 113.82357 | 35921 ft | 419 kts | 299° |
| 2026-04-20 17:55 | 22.11559 | 113.77315 | 35914 ft | 418 kts | 323° |
| 2026-04-20 17:55 | 22.16594 | 113.74444 | 35915 ft | 397 kts | 333° |
| 2026-04-20 17:55 | 22.19082 | 113.73253 | 35919 ft | 384 kts | 337° |
| 2026-04-20 17:56 | 22.21668 | 113.72726 | 35919 ft | 381 kts | 0° |
| 2026-04-20 17:56 | 22.24269 | 113.73351 | 35926 ft | 388 kts | 19° |
| 2026-04-20 17:56 | 22.26590 | 113.74883 | 35939 ft | 398 kts | 41° |
| 2026-04-20 17:56 | 22.28239 | 113.77319 | 35951 ft | 410 kts | 61° |
| 2026-04-20 17:57 | 22.29233 | 113.80237 | 35950 ft | 417 kts | 72° |
| 2026-04-20 17:57 | 22.30417 | 113.86400 | 35949 ft | 420 kts | 75° |
| 2026-04-20 17:58 | 22.31834 | 113.92497 | 35946 ft | 417 kts | 66° |
| 2026-04-20 17:58 | 22.33169 | 113.95219 | 35951 ft | 408 kts | 50° |
| 2026-04-20 17:58 | 22.34662 | 113.97434 | 35947 ft | 408 kts | 50° |
| 2026-04-20 17:59 | 22.38440 | 114.01891 | 35947 ft | 403 kts | 38° |
| 2026-04-20 17:59 | 22.42713 | 114.05788 | 35948 ft | 401 kts | 34° |
| 2026-04-20 18:00 | 22.46775 | 114.09952 | 35952 ft | 409 kts | 51° |
| 2026-04-20 18:00 | 22.49378 | 114.15477 | 35954 ft | 418 kts | 69° |
| 2026-04-20 18:00 | 22.49838 | 114.18592 | 35952 ft | 423 kts | 93° |
| 2026-04-20 18:01 | 22.49288 | 114.21374 | 35954 ft | 425 kts | 114° |
| 2026-04-20 18:01 | 22.47689 | 114.24031 | 35954 ft | 422 kts | 139° |
| 2026-04-20 18:01 | 22.45344 | 114.25915 | 35959 ft | 420 kts | 153° |
| 2026-04-20 18:02 | 22.40259 | 114.28991 | 35949 ft | 422 kts | 153° |
| 2026-04-20 18:02 | 22.35294 | 114.32401 | 35950 ft | 424 kts | 144° |
| 2026-04-20 18:03 | 22.30398 | 114.35787 | 35941 ft | 412 kts | 171° |
| 2026-04-20 18:03 | 22.27596 | 114.35981 | 35940 ft | 400 kts | 195° |
| 2026-04-20 18:03 | 22.25040 | 114.34988 | 35943 ft | 386 kts | 219° |
| 2026-04-20 18:03 | 22.23155 | 114.33018 | 35939 ft | 375 kts | 242° |
| 2026-04-20 18:04 | 22.21892 | 114.30566 | 35941 ft | 375 kts | 245° |
| 2026-04-20 18:04 | 22.19445 | 114.25601 | 35935 ft | 378 kts | 245° |
| 2026-04-20 18:04 | 22.17987 | 114.23234 | 35931 ft | 383 kts | 230° |
| 2026-04-20 18:05 | 22.14592 | 114.18826 | 35936 ft | 380 kts | 242° |
| 2026-04-20 18:05 | 22.12144 | 114.13796 | 35936 ft | 378 kts | 248° |
| 2026-04-20 18:06 | 22.10251 | 114.09542 | 35936 ft | 379 kts | 247° |
| 2026-04-20 18:06 | 22.07820 | 114.04494 | 35934 ft | 380 kts | 245° |
| 2026-04-20 18:07 | 22.05254 | 113.99504 | 35936 ft | 381 kts | 244° |
| 2026-04-20 18:07 | 22.02889 | 113.94425 | 35915 ft | 373 kts | 262° |
| 2026-04-20 18:08 | 22.02841 | 113.91688 | 35937 ft | 365 kts | 285° |
| 2026-04-20 18:08 | 22.04093 | 113.88351 | 35940 ft | 365 kts | 301° |
| 2026-04-20 18:08 | 22.06991 | 113.83847 | 35924 ft | 366 kts | 306° |
| 2026-04-20 18:09 | 22.09395 | 113.80053 | 35924 ft | 366 kts | 302° |
| 2026-04-20 18:09 | 22.11988 | 113.75361 | 35920 ft | 366 kts | 301° |
| 2026-04-20 18:10 | 22.14535 | 113.70619 | 35922 ft | 364 kts | 300° |
| 2026-04-20 18:10 | 22.17066 | 113.65886 | 35920 ft | 364 kts | 300° |
| 2026-04-20 18:11 | 22.19589 | 113.61153 | 35921 ft | 364 kts | 300° |
| 2026-04-20 18:11 | 22.22109 | 113.56408 | 35921 ft | 364 kts | 300° |
| 2026-04-20 18:12 | 22.24624 | 113.51673 | 35920 ft | 364 kts | 300° |
| 2026-04-20 18:12 | 22.27141 | 113.46937 | 35919 ft | 363 kts | 300° |
| 2026-04-20 18:13 | 22.29657 | 113.42204 | 35918 ft | 363 kts | 301° |
| 2026-04-20 18:13 | 22.32157 | 113.37498 | 35919 ft | 364 kts | 300° |
| 2026-04-20 18:14 | 22.34676 | 113.32758 | 35916 ft | 363 kts | 301° |
| 2026-04-20 18:14 | 22.37193 | 113.28023 | 35913 ft | 363 kts | 300° |
| 2026-04-20 18:15 | 22.39711 | 113.23286 | 35918 ft | 363 kts | 300° |
| 2026-04-20 18:15 | 22.42228 | 113.18553 | 35916 ft | 363 kts | 301° |
| 2026-04-20 18:16 | 22.44747 | 113.13820 | 35918 ft | 363 kts | 300° |
| 2026-04-20 18:16 | 22.47266 | 113.09092 | 35919 ft | 363 kts | 300° |
| 2026-04-20 18:17 | 22.49769 | 113.04394 | 35916 ft | 363 kts | 301° |
| 2026-04-20 18:17 | 22.52298 | 112.99655 | 35914 ft | 363 kts | 301° |
| 2026-04-20 18:18 | 22.54822 | 112.94930 | 35918 ft | 363 kts | 300° |
| 2026-04-20 18:18 | 22.57348 | 112.90206 | 35919 ft | 362 kts | 301° |
| 2026-04-20 18:19 | 22.59859 | 112.85517 | 35915 ft | 362 kts | 300° |
| 2026-04-20 18:19 | 22.62392 | 112.80801 | 35915 ft | 362 kts | 301° |
| 2026-04-20 18:20 | 22.64932 | 112.76090 | 35914 ft | 362 kts | 300° |
| 2026-04-20 18:20 | 22.67479 | 112.71387 | 35916 ft | 362 kts | 301° |
| 2026-04-20 18:21 | 22.70028 | 112.66689 | 35915 ft | 362 kts | 300° |
| 2026-04-20 18:21 | 22.72585 | 112.61999 | 35914 ft | 361 kts | 301° |
| 2026-04-20 18:22 | 22.75151 | 112.57309 | 35917 ft | 361 kts | 300° |
| 2026-04-20 18:22 | 22.77722 | 112.52630 | 35913 ft | 361 kts | 301° |
| 2026-04-20 18:23 | 22.80297 | 112.47958 | 35912 ft | 361 kts | 300° |
| 2026-04-20 18:23 | 22.82865 | 112.43307 | 35914 ft | 361 kts | 301° |
| 2026-04-20 18:24 | 22.85450 | 112.38635 | 35917 ft | 360 kts | 301° |
| 2026-04-20 18:24 | 22.88027 | 112.33981 | 35916 ft | 360 kts | 301° |
| 2026-04-20 18:25 | 22.90608 | 112.29327 | 35912 ft | 360 kts | 301° |
| 2026-04-20 18:25 | 22.93190 | 112.24681 | 35918 ft | 359 kts | 301° |
| 2026-04-20 18:26 | 22.95757 | 112.20063 | 35921 ft | 359 kts | 301° |
| 2026-04-20 18:26 | 22.98335 | 112.15427 | 35916 ft | 358 kts | 301° |
| 2026-04-20 18:27 | 23.00908 | 112.10807 | 35918 ft | 357 kts | 301° |
| 2026-04-20 18:27 | 23.03475 | 112.06198 | 35914 ft | 357 kts | 301° |
| 2026-04-20 18:28 | 23.06046 | 112.01588 | 35918 ft | 356 kts | 301° |
| 2026-04-20 18:28 | 23.08598 | 111.97008 | 35917 ft | 356 kts | 301° |
| 2026-04-20 18:29 | 23.11161 | 111.92409 | 35919 ft | 356 kts | 301° |
| 2026-04-20 18:29 | 23.13727 | 111.87805 | 35914 ft | 356 kts | 301° |
| 2026-04-20 18:30 | 23.16297 | 111.83195 | 35916 ft | 356 kts | 301° |
| 2026-04-20 18:30 | 23.18848 | 111.78621 | 35917 ft | 356 kts | 301° |
| 2026-04-20 18:31 | 23.21413 | 111.74018 | 35914 ft | 356 kts | 301° |
| 2026-04-20 18:31 | 23.23979 | 111.69415 | 35912 ft | 356 kts | 301° |
| 2026-04-20 18:32 | 23.26548 | 111.64811 | 35913 ft | 356 kts | 301° |
| 2026-04-20 18:32 | 23.29114 | 111.60209 | 35908 ft | 356 kts | 301° |
| 2026-04-20 18:33 | 23.31681 | 111.55602 | 35906 ft | 356 kts | 301° |
| 2026-04-20 18:33 | 23.34228 | 111.51030 | 35907 ft | 355 kts | 301° |
| 2026-04-20 18:34 | 23.36796 | 111.46422 | 35907 ft | 355 kts | 301° |
| 2026-04-20 18:34 | 23.39360 | 111.41826 | 35903 ft | 355 kts | 301° |
| 2026-04-20 18:35 | 23.41921 | 111.37225 | 35905 ft | 355 kts | 301° |
| 2026-04-20 18:35 | 23.44485 | 111.32631 | 35905 ft | 355 kts | 301° |
| 2026-04-20 18:36 | 23.47049 | 111.28043 | 35904 ft | 355 kts | 301° |
| 2026-04-20 18:36 | 23.49609 | 111.23459 | 35905 ft | 354 kts | 301° |
| 2026-04-20 18:37 | 23.52173 | 111.18870 | 35900 ft | 354 kts | 301° |
| 2026-04-20 18:37 | 23.54739 | 111.14284 | 35901 ft | 354 kts | 301° |
| 2026-04-20 18:38 | 23.57288 | 111.09732 | 35900 ft | 354 kts | 301° |
| 2026-04-20 18:38 | 23.59860 | 111.05149 | 35902 ft | 354 kts | 301° |
| 2026-04-20 18:39 | 23.62433 | 111.00572 | 35905 ft | 354 kts | 301° |
| 2026-04-20 18:39 | 23.65007 | 110.95995 | 35902 ft | 354 kts | 301° |
| 2026-04-20 18:40 | 23.67570 | 110.91448 | 35902 ft | 354 kts | 301° |
| 2026-04-20 18:40 | 23.70157 | 110.86872 | 35902 ft | 354 kts | 301° |
| 2026-04-20 18:41 | 23.72737 | 110.82307 | 35901 ft | 354 kts | 301° |
| 2026-04-20 18:41 | 23.75329 | 110.77734 | 35900 ft | 354 kts | 301° |
| 2026-04-20 18:42 | 23.77919 | 110.73171 | 35902 ft | 354 kts | 301° |
| 2026-04-20 18:42 | 23.80512 | 110.68607 | 35904 ft | 353 kts | 301° |
| 2026-04-20 18:43 | 23.83105 | 110.64046 | 35896 ft | 353 kts | 301° |
| 2026-04-20 18:43 | 23.85686 | 110.59518 | 35907 ft | 353 kts | 301° |
| 2026-04-20 18:44 | 23.88273 | 110.54972 | 35909 ft | 352 kts | 301° |
| 2026-04-20 18:44 | 23.90864 | 110.50432 | 35900 ft | 351 kts | 301° |
| 2026-04-20 18:45 | 23.93448 | 110.45899 | 35916 ft | 351 kts | 301° |
| 2026-04-20 18:45 | 23.96021 | 110.41393 | 35911 ft | 351 kts | 301° |
| 2026-04-20 18:46 | 23.98615 | 110.36867 | 35905 ft | 351 kts | 301° |
| 2026-04-20 18:46 | 24.01213 | 110.32334 | 35916 ft | 351 kts | 301° |
| 2026-04-20 18:47 | 24.03812 | 110.27801 | 35923 ft | 351 kts | 300° |
| 2026-04-20 18:47 | 24.06423 | 110.23293 | 35910 ft | 351 kts | 301° |
| 2026-04-20 18:48 | 24.09011 | 110.18811 | 35911 ft | 351 kts | 301° |
| 2026-04-20 18:48 | 24.11622 | 110.14287 | 35909 ft | 352 kts | 301° |
| 2026-04-20 18:49 | 24.14243 | 110.09758 | 35898 ft | 352 kts | 301° |
| 2026-04-20 18:49 | 24.16866 | 110.05234 | 35898 ft | 352 kts | 301° |
| 2026-04-20 18:50 | 24.19492 | 110.00709 | 35900 ft | 352 kts | 301° |
| 2026-04-20 18:50 | 24.22117 | 109.96191 | 35893 ft | 352 kts | 301° |
| 2026-04-20 18:51 | 24.24748 | 109.91665 | 35891 ft | 352 kts | 301° |
| 2026-04-20 18:51 | 24.27381 | 109.87144 | 35888 ft | 352 kts | 301° |
| 2026-04-20 18:52 | 24.30006 | 109.82645 | 35882 ft | 352 kts | 301° |
| 2026-04-20 18:52 | 24.32650 | 109.78118 | 35884 ft | 353 kts | 301° |
| 2026-04-20 18:53 | 24.35300 | 109.73587 | 35876 ft | 353 kts | 301° |
| 2026-04-20 18:53 | 24.37953 | 109.69058 | 35883 ft | 353 kts | 301° |
| 2026-04-20 18:54 | 24.40613 | 109.64520 | 35882 ft | 353 kts | 301° |
| 2026-04-20 18:54 | 24.43275 | 109.59985 | 35883 ft | 353 kts | 301° |
| 2026-04-20 18:55 | 24.45491 | 109.56216 | 35883 ft | 353 kts | 301° |
| 2026-04-20 18:55 | 24.48160 | 109.51679 | 35879 ft | 354 kts | 301° |
| 2026-04-20 18:56 | 24.50837 | 109.47138 | 35881 ft | 354 kts | 301° |
| 2026-04-20 18:56 | 24.53518 | 109.42598 | 35880 ft | 354 kts | 301° |
| 2026-04-20 18:57 | 24.56210 | 109.38052 | 35881 ft | 355 kts | 301° |
| 2026-04-20 18:57 | 24.58890 | 109.33534 | 35881 ft | 355 kts | 301° |
| 2026-04-20 18:58 | 24.61591 | 109.28994 | 35876 ft | 355 kts | 301° |
| 2026-04-20 18:58 | 24.64294 | 109.24453 | 35880 ft | 355 kts | 301° |
| 2026-04-20 18:59 | 24.67004 | 109.19911 | 35877 ft | 355 kts | 301° |
| 2026-04-20 18:59 | 24.69718 | 109.15373 | 35871 ft | 355 kts | 301° |
| 2026-04-20 19:00 | 24.72437 | 109.10835 | 35872 ft | 355 kts | 301° |
| 2026-04-20 19:00 | 24.75140 | 109.06335 | 35877 ft | 354 kts | 301° |
| 2026-04-20 19:01 | 24.77861 | 109.01824 | 35876 ft | 353 kts | 301° |
| 2026-04-20 19:01 | 24.80589 | 108.97307 | 35876 ft | 354 kts | 301° |
| 2026-04-20 19:02 | 24.83322 | 108.92781 | 35877 ft | 355 kts | 301° |
| 2026-04-20 19:02 | 24.86062 | 108.88260 | 35880 ft | 355 kts | 301° |
| 2026-04-20 19:03 | 24.88809 | 108.83730 | 35880 ft | 355 kts | 301° |
| 2026-04-20 19:03 | 24.91553 | 108.79198 | 35882 ft | 356 kts | 301° |
| 2026-04-20 19:04 | 24.94290 | 108.74695 | 35881 ft | 356 kts | 301° |
| 2026-04-20 19:04 | 24.97050 | 108.70156 | 35880 ft | 357 kts | 301° |
| 2026-04-20 19:05 | 24.99814 | 108.65608 | 35885 ft | 357 kts | 301° |
| 2026-04-20 19:05 | 25.02586 | 108.61050 | 35884 ft | 358 kts | 301° |
| 2026-04-20 19:06 | 25.05361 | 108.56493 | 35887 ft | 358 kts | 301° |
| 2026-04-20 19:06 | 25.08143 | 108.51923 | 35887 ft | 359 kts | 301° |
| 2026-04-20 19:07 | 25.10928 | 108.47347 | 35889 ft | 359 kts | 301° |
| 2026-04-20 19:07 | 25.13719 | 108.42761 | 35888 ft | 360 kts | 301° |
| 2026-04-20 19:08 | 25.17896 | 108.35909 | 35890 ft | 360 kts | 301° |
| 2026-04-20 19:09 | 25.20700 | 108.31313 | 35890 ft | 361 kts | 301° |
| 2026-04-20 19:09 | 25.23507 | 108.26717 | 35891 ft | 361 kts | 301° |
| 2026-04-20 19:10 | 25.26314 | 108.22128 | 35893 ft | 360 kts | 301° |
| 2026-04-20 19:10 | 25.29128 | 108.17536 | 35896 ft | 360 kts | 301° |
| 2026-04-20 19:11 | 25.31940 | 108.12957 | 35901 ft | 360 kts | 301° |
| 2026-04-20 19:11 | 25.34754 | 108.08378 | 35900 ft | 360 kts | 301° |
| 2026-04-20 19:12 | 25.37572 | 108.03801 | 35906 ft | 360 kts | 301° |
| 2026-04-20 19:12 | 25.40404 | 107.99230 | 35906 ft | 360 kts | 301° |
| 2026-04-20 19:13 | 25.43215 | 107.94690 | 35910 ft | 360 kts | 301° |
| 2026-04-20 19:13 | 25.46049 | 107.90115 | 35909 ft | 360 kts | 301° |
| 2026-04-20 19:14 | 25.48886 | 107.85544 | 35913 ft | 360 kts | 301° |
| 2026-04-20 19:14 | 25.51705 | 107.81001 | 35918 ft | 360 kts | 301° |
| 2026-04-20 19:15 | 25.54539 | 107.76436 | 35919 ft | 360 kts | 301° |
| 2026-04-20 19:15 | 25.57379 | 107.71865 | 35921 ft | 360 kts | 301° |
| 2026-04-20 19:16 | 25.60221 | 107.67290 | 35925 ft | 360 kts | 301° |
| 2026-04-20 19:16 | 25.63068 | 107.62712 | 35926 ft | 360 kts | 301° |
| 2026-04-20 19:17 | 25.65897 | 107.58168 | 35928 ft | 360 kts | 301° |
| 2026-04-20 19:17 | 25.68740 | 107.53602 | 35933 ft | 359 kts | 301° |
| 2026-04-20 19:18 | 25.71583 | 107.49045 | 35935 ft | 359 kts | 301° |
| 2026-04-20 19:18 | 25.74425 | 107.44496 | 35935 ft | 358 kts | 301° |
| 2026-04-20 19:19 | 25.77269 | 107.39952 | 35933 ft | 358 kts | 301° |
| 2026-04-20 19:19 | 25.80108 | 107.35424 | 35940 ft | 356 kts | 301° |
| 2026-04-20 19:20 | 25.82938 | 107.30921 | 35938 ft | 355 kts | 301° |
| 2026-04-20 19:20 | 25.85772 | 107.26423 | 35939 ft | 355 kts | 301° |
| 2026-04-20 19:21 | 25.88607 | 107.21935 | 35943 ft | 355 kts | 301° |
| 2026-04-20 19:21 | 25.91445 | 107.17459 | 35940 ft | 354 kts | 301° |
| 2026-04-20 19:22 | 25.94264 | 107.13018 | 35944 ft | 354 kts | 301° |
| 2026-04-20 19:22 | 25.97101 | 107.08553 | 35942 ft | 353 kts | 301° |
| 2026-04-20 19:23 | 25.99933 | 107.04091 | 35936 ft | 353 kts | 301° |
| 2026-04-20 19:23 | 26.02776 | 106.99636 | 35940 ft | 353 kts | 301° |
| 2026-04-20 19:24 | 26.05628 | 106.95191 | 35938 ft | 352 kts | 301° |
| 2026-04-20 19:24 | 26.08480 | 106.90750 | 35935 ft | 352 kts | 301° |
| 2026-04-20 19:25 | 26.11311 | 106.86337 | 35932 ft | 352 kts | 301° |
| 2026-04-20 19:25 | 26.14162 | 106.81918 | 35929 ft | 351 kts | 301° |
| 2026-04-20 19:26 | 26.17014 | 106.77500 | 35929 ft | 350 kts | 301° |
| 2026-04-20 19:26 | 26.19855 | 106.73098 | 35923 ft | 349 kts | 301° |
| 2026-04-20 19:27 | 26.22676 | 106.68731 | 35922 ft | 349 kts | 301° |
| 2026-04-20 19:27 | 26.25525 | 106.64344 | 35918 ft | 349 kts | 301° |
| 2026-04-20 19:28 | 26.28366 | 106.59968 | 35914 ft | 348 kts | 301° |
| 2026-04-20 19:28 | 26.31204 | 106.55595 | 35914 ft | 348 kts | 301° |
| 2026-04-20 19:29 | 26.34041 | 106.51220 | 35916 ft | 347 kts | 301° |
| 2026-04-20 19:29 | 26.36859 | 106.46885 | 35919 ft | 347 kts | 301° |
| 2026-04-20 19:30 | 26.39695 | 106.42535 | 35912 ft | 346 kts | 301° |
| 2026-04-20 19:30 | 26.42535 | 106.38192 | 35913 ft | 346 kts | 301° |
| 2026-04-20 19:31 | 26.45373 | 106.33861 | 35912 ft | 346 kts | 301° |
| 2026-04-20 19:31 | 26.48220 | 106.29531 | 35902 ft | 345 kts | 301° |
| 2026-04-20 19:32 | 26.51056 | 106.25222 | 35904 ft | 344 kts | 301° |
| 2026-04-20 19:32 | 26.53866 | 106.20948 | 35903 ft | 342 kts | 301° |
| 2026-04-20 19:33 | 26.56689 | 106.16669 | 35905 ft | 342 kts | 301° |
| 2026-04-20 19:33 | 26.59515 | 106.12396 | 35905 ft | 341 kts | 301° |
| 2026-04-20 19:34 | 26.62336 | 106.08139 | 35898 ft | 340 kts | 301° |
| 2026-04-20 19:34 | 26.65150 | 106.03891 | 35898 ft | 340 kts | 301° |
| 2026-04-20 19:35 | 26.67954 | 105.99642 | 35897 ft | 339 kts | 301° |
| 2026-04-20 19:35 | 26.70740 | 105.95420 | 35893 ft | 339 kts | 301° |
| 2026-04-20 19:36 | 26.73546 | 105.91170 | 35892 ft | 339 kts | 301° |
| 2026-04-20 19:36 | 26.76350 | 105.86921 | 35891 ft | 339 kts | 301° |
| 2026-04-20 19:37 | 26.79151 | 105.82677 | 35889 ft | 337 kts | 301° |
| 2026-04-20 19:37 | 26.81944 | 105.78459 | 35887 ft | 337 kts | 301° |
| 2026-04-20 19:38 | 26.84742 | 105.74239 | 35885 ft | 337 kts | 302° |
| 2026-04-20 19:38 | 26.87533 | 105.70027 | 35887 ft | 337 kts | 301° |
| 2026-04-20 19:39 | 26.90317 | 105.65804 | 35883 ft | 337 kts | 301° |
| 2026-04-20 19:39 | 26.93099 | 105.61589 | 35879 ft | 336 kts | 301° |
| 2026-04-20 19:40 | 26.95870 | 105.57394 | 35876 ft | 337 kts | 301° |
| 2026-04-20 19:40 | 26.98663 | 105.53177 | 35872 ft | 336 kts | 301° |
| 2026-04-20 19:41 | 27.01447 | 105.48960 | 35868 ft | 336 kts | 301° |
| 2026-04-20 19:41 | 27.04227 | 105.44737 | 35870 ft | 336 kts | 301° |
| 2026-04-20 19:42 | 27.06991 | 105.40510 | 35865 ft | 336 kts | 301° |
| 2026-04-20 19:42 | 27.09286 | 105.37004 | 35866 ft | 335 kts | 301° |
| 2026-04-20 19:43 | 27.12516 | 105.32078 | 35861 ft | 335 kts | 301° |
| 2026-04-20 19:43 | 27.15256 | 105.27898 | 35857 ft | 335 kts | 301° |
| 2026-04-20 19:44 | 27.18016 | 105.23691 | 35857 ft | 335 kts | 301° |
| 2026-04-20 19:44 | 27.20771 | 105.19470 | 35855 ft | 335 kts | 301° |
| 2026-04-20 19:45 | 27.23519 | 105.15244 | 35854 ft | 334 kts | 301° |
| 2026-04-20 19:45 | 27.25793 | 105.11740 | 35856 ft | 333 kts | 301° |
| 2026-04-20 19:46 | 27.28986 | 105.06825 | 35855 ft | 332 kts | 301° |
| 2026-04-20 19:46 | 27.31254 | 105.03340 | 35855 ft | 332 kts | 301° |
| 2026-04-20 19:47 | 27.33976 | 104.99149 | 35856 ft | 332 kts | 301° |
| 2026-04-20 19:47 | 27.36694 | 104.94957 | 35865 ft | 331 kts | 301° |
| 2026-04-20 19:48 | 27.39405 | 104.90766 | 35857 ft | 330 kts | 301° |
| 2026-04-20 19:48 | 27.42115 | 104.86596 | 35864 ft | 329 kts | 301° |
| 2026-04-20 19:49 | 27.44806 | 104.82462 | 35867 ft | 329 kts | 301° |
| 2026-04-20 19:49 | 27.47508 | 104.78312 | 35866 ft | 328 kts | 301° |
| 2026-04-20 19:50 | 27.50207 | 104.74169 | 35867 ft | 327 kts | 301° |
| 2026-04-20 19:50 | 27.52902 | 104.70029 | 35870 ft | 327 kts | 301° |
| 2026-04-20 19:51 | 27.55584 | 104.65923 | 35871 ft | 327 kts | 301° |
| 2026-04-20 19:51 | 27.58292 | 104.61790 | 35869 ft | 327 kts | 301° |
| 2026-04-20 19:52 | 27.60996 | 104.57674 | 35868 ft | 326 kts | 301° |
| 2026-04-20 19:52 | 27.63697 | 104.53573 | 35863 ft | 326 kts | 301° |
| 2026-04-20 19:53 | 27.66413 | 104.49482 | 35866 ft | 326 kts | 301° |
| 2026-04-20 19:53 | 27.69134 | 104.45374 | 35867 ft | 327 kts | 301° |
| 2026-04-20 19:54 | 27.71843 | 104.41298 | 35870 ft | 327 kts | 302° |
| 2026-04-20 19:54 | 27.74510 | 104.37261 | 35867 ft | 312 kts | 301° |
| 2026-04-20 19:55 | 27.77032 | 104.33500 | 35855 ft | 282 kts | 301° |
| 2026-04-20 19:55 | 27.78171 | 104.31780 | 35805 ft | 264 kts | 298° |
| 2026-04-20 19:55 | 27.79101 | 104.30087 | 35746 ft | 243 kts | 291° |
| 2026-04-20 19:55 | 27.79676 | 104.28390 | 35632 ft | 221 kts | 279° |
| 2026-04-20 19:56 | 27.79773 | 104.26746 | 35431 ft | 201 kts | 262° |
| 2026-04-20 19:56 | 27.79305 | 104.25333 | 35036 ft | 186 kts | 236° |
| 2026-04-20 19:56 | 27.78738 | 104.24401 | 31121 ft | 121 kts | 289° |
| 2026-04-20 19:56 | 27.79654 | 104.23404 | 21302 ft | 307 kts | 327° |
| 2026-04-20 19:57 | 27.82617 | 104.21984 | 11945 ft | 556 kts | 334° |
| 2026-04-20 19:57 | 27.86161 | 104.19951 | 6722 ft | 566 kts | 326° |
| 2026-04-20 19:57 | 27.88825 | 104.17137 | 6997 ft | 484 kts | 305° |
| 2026-04-20 19:57 | 27.90043 | 104.14070 | 9387 ft | 382 kts | 278° |
| 2026-04-20 19:58 | 27.89898 | 104.11382 | 10585 ft | 317 kts | 243° |
| 2026-04-20 19:58 | 27.88425 | 104.09840 | 10890 ft | 287 kts | 196° |
| 2026-04-20 19:58 | 27.86491 | 104.10201 | 10374 ft | 301 kts | 148° |
| 2026-04-20 19:58 | 27.85274 | 104.12217 | 9247 ft | 334 kts | 107° |
| 2026-04-20 19:59 | 27.85371 | 104.14938 | 7668 ft | 367 kts | 72° |
| 2026-04-20 19:59 | 27.86787 | 104.17430 | 6005 ft | 392 kts | 42° |
| 2026-04-20 19:59 | 27.89193 | 104.18948 | 4368 ft | 406 kts | 15° |
| 2026-04-20 19:59 | 27.90918 | 104.19352 | 3947 ft | 109 kts | 18° |
| 2026-04-20 20:00 | 27.91500 | 104.19366 | 2740 ft | 70 kts | 355° |
| 2026-04-20 20:00 | 27.91560 | 104.19352 | 2768 ft | 0 kts | 346° |